Time;durP1;ratioP1;P1;durP2;ratioP2;P2;SDS_P1;SDS_P2;PMS_P1;PMS_P2;Temp;Humidity;BMP_temperature;BMP_pressure;BME280_temperature;BME280_humidity;BME280_pressure;Samples;Min_cycle;Max_cycle;Signal;HPM_P1;HPM_P2
2023/08/05 00:00:03;;;;;;;16.20;8.30;;;;;;;-145.69;78.24;52068.13;5097308;28;20198;-82
2023/08/05 00:02:30;;;;;;;13.02;6.30;;;;;;;-145.69;78.04;52036.44;5096640;28;20542;-82
2023/08/05 00:04:56;;;;;;;13.25;6.80;;;;;;;-145.69;77.59;52040.41;5096497;28;20230;-82
2023/08/05 00:07:23;;;;;;;12.68;7.32;;;;;;;-145.69;77.57;52018.63;5097131;28;20200;-83
2023/08/05 00:09:51;;;;;;;13.10;6.70;;;;;;;-145.69;77.18;52002.78;5096574;28;20289;-83
2023/08/05 00:12:22;;;;;;;11.55;6.15;;;;;;;-145.69;77.56;52034.47;5096372;28;20198;-82
2023/08/05 00:14:49;;;;;;;14.80;7.80;;;;;;;-145.69;77.12;52000.81;5096086;28;20217;-83
2023/08/05 00:17:15;;;;;;;13.60;6.95;;;;;;;-145.69;76.00;52020.59;5096335;28;20206;-82
2023/08/05 00:19:45;;;;;;;13.68;7.60;;;;;;;-145.69;74.57;52020.59;5097301;28;20294;-82
2023/08/05 00:22:11;;;;;;;12.77;7.63;;;;;;;-145.69;75.13;52034.47;5097635;28;20209;-83
2023/08/05 00:24:41;;;;;;;13.25;6.80;;;;;;;-145.69;76.42;52036.44;5094208;28;20232;-82
2023/08/05 00:27:07;;;;;;;14.73;7.28;;;;;;;-145.69;77.55;52032.47;5096482;28;20198;-81
2023/08/05 00:29:35;;;;;;;13.55;7.38;;;;;;;-145.69;77.04;52024.56;5096266;28;20202;-83
2023/08/05 00:32:02;;;;;;;18.10;7.20;;;;;;;-145.69;77.97;52052.28;5095772;28;20202;-82
2023/08/05 00:34:28;;;;;;;17.67;7.43;;;;;;;-145.69;77.21;52050.31;5096062;28;20232;-82
2023/08/05 00:36:55;;;;;;;15.52;8.45;;;;;;;-145.69;76.41;52044.38;5095900;28;20672;-82
2023/08/05 00:39:21;;;;;;;12.38;6.65;;;;;;;-145.69;78.92;52008.72;5095548;28;20573;-82
2023/08/05 00:41:53;;;;;;;15.48;7.45;;;;;;;-145.69;78.24;52048.31;5095865;28;20205;-82
2023/08/05 00:44:20;;;;;;;14.65;7.30;;;;;;;-145.69;79.32;52040.41;5095359;28;20580;-82
2023/08/05 00:46:48;;;;;;;15.25;7.13;;;;;;;-145.69;79.93;52036.44;5095889;28;20201;-82
2023/08/05 00:49:15;;;;;;;14.40;7.13;;;;;;;-145.69;81.18;52004.75;5095688;28;20198;-82
2023/08/05 00:51:43;;;;;;;14.95;7.60;;;;;;;-145.69;80.83;52022.59;5094443;28;20683;-82
2023/08/05 00:54:10;;;;;;;17.05;7.82;;;;;;;-145.69;81.53;52054.25;5095534;28;20201;-82
2023/08/05 00:56:40;;;;;;;10.85;6.45;;;;;;;-145.69;81.42;52040.41;5095617;28;20205;-82
2023/08/05 00:59:07;;;;;;;12.65;7.05;;;;;;;-145.69;81.02;52048.31;5095877;28;20222;-82
2023/08/05 01:01:33;;;;;;;13.82;7.53;;;;;;;-145.69;81.12;52016.66;5095470;28;20208;-82
2023/08/05 01:04:04;;;;;;;13.48;7.13;;;;;;;-145.69;81.01;52034.47;5095476;28;20194;-83
2023/08/05 01:06:31;;;;;;;19.52;7.25;;;;;;;-145.69;79.49;52074.06;5095145;28;20293;-82
2023/08/05 01:09:01;;;;;;;16.73;6.60;;;;;;;-145.69;81.48;52087.94;5095554;28;20202;-83
2023/08/05 01:11:35;;;;;;;13.15;7.20;;;;;;;-145.69;81.28;52060.22;5090975;28;20293;-82
2023/08/05 01:14:01;;;;;;;10.10;6.18;;;;;;;-145.69;81.17;52083.97;5095412;28;20285;-82
2023/08/05 01:16:28;;;;;;;11.27;5.93;;;;;;;-145.69;81.82;52020.59;5096134;28;20230;-82
2023/08/05 01:18:57;;;;;;;11.88;7.00;;;;;;;-145.69;82.10;52064.16;5096289;28;20205;-81
2023/08/05 01:21:33;;;;;;;16.80;6.35;;;;;;;-145.69;81.80;52024.56;5094228;28;20648;-82
2023/08/05 01:24:13;;;;;;;10.23;5.20;;;;;;;-145.69;82.53;52046.34;5094941;28;20254;-81
2023/08/05 01:26:43;;;;;;;10.73;6.35;;;;;;;-145.69;81.60;52056.25;5094917;28;20198;-82
2023/08/05 01:29:12;;;;;;;10.60;5.53;;;;;;;-145.69;83.21;52048.31;5094631;28;20232;-82
2023/08/05 01:31:41;;;;;;;14.63;6.30;;;;;;;-145.69;82.53;52056.25;5092249;28;20263;-80
2023/08/05 01:34:08;;;;;;;16.48;6.88;;;;;;;-145.69;82.70;52066.16;5074416;28;20725;-82
2023/08/05 01:36:38;;;;;;;10.80;6.13;;;;;;;-145.69;83.19;52036.44;5074625;28;20206;-81
2023/08/05 01:39:04;;;;;;;15.13;6.10;;;;;;;-145.69;84.28;52052.28;5074395;28;20205;-82
2023/08/05 01:41:31;;;;;;;12.85;6.65;;;;;;;-145.69;83.36;52052.28;5073644;28;20248;-82
2023/08/05 01:43:59;;;;;;;13.13;6.25;;;;;;;-145.69;84.19;52064.16;5072239;28;20206;-81
2023/08/05 01:46:25;;;;;;;13.18;6.72;;;;;;;-145.69;83.52;52097.84;5088299;28;20305;-81
2023/08/05 01:48:52;;;;;;;16.10;5.97;;;;;;;-145.69;84.13;52048.31;5094373;28;20202;-81
2023/08/05 01:51:18;;;;;;;13.10;6.60;;;;;;;-145.69;84.37;52062.19;5094147;28;20205;-81
2023/08/05 01:53:46;;;;;;;11.10;6.28;;;;;;;-145.69;84.37;52052.28;5094286;28;20209;-81
2023/08/05 01:56:12;;;;;;;9.73;6.43;;;;;;;-145.69;84.22;52080.00;5094085;28;20208;-81
2023/08/05 01:58:41;;;;;;;11.50;6.22;;;;;;;-145.69;84.08;52056.25;5094331;28;20202;-81
2023/08/05 02:01:08;;;;;;;11.73;6.88;;;;;;;-145.69;84.83;52068.13;5094178;28;20198;-82
2023/08/05 02:03:37;;;;;;;13.00;6.25;;;;;;;-145.69;83.29;52089.91;5093041;28;20213;-81
2023/08/05 02:06:04;;;;;;;8.90;5.97;;;;;;;-145.69;84.21;52044.38;5093947;28;20257;-82
2023/08/05 02:08:30;;;;;;;10.05;6.13;;;;;;;-145.69;84.63;52068.13;5094196;28;20213;-82
2023/08/05 02:10:57;;;;;;;13.05;6.57;;;;;;;-145.69;82.04;52070.09;5093709;28;20198;-81
2023/08/05 02:13:23;;;;;;;11.10;5.97;;;;;;;-145.69;83.72;52052.28;5093868;28;20198;-81
2023/08/05 02:15:50;;;;;;;10.38;6.18;;;;;;;-145.69;83.98;52080.00;5093383;28;20775;-81
2023/08/05 02:18:18;;;;;;;12.77;6.45;;;;;;;-145.69;84.23;52091.88;5093709;28;20291;-81
2023/08/05 02:20:44;;;;;;;13.40;6.93;;;;;;;-145.69;84.66;52074.06;5093823;28;20206;-81
2023/08/05 02:23:11;;;;;;;15.88;6.68;;;;;;;-145.69;84.27;52040.41;5093410;28;20661;-82
2023/08/05 02:25:37;;;;;;;11.38;7.03;;;;;;;-145.69;84.23;52062.19;5093989;28;20232;-81
2023/08/05 02:28:04;;;;;;;15.70;6.78;;;;;;;-145.69;81.82;52064.16;5093779;28;20195;-81
2023/08/05 02:30:30;;;;;;;10.65;6.45;;;;;;;-145.69;79.77;52091.88;5093734;28;20205;-81
2023/08/05 02:32:57;;;;;;;13.15;6.85;;;;;;;-145.69;82.59;52083.97;5092966;28;20198;-81
2023/08/05 02:35:25;;;;;;;12.93;6.28;;;;;;;-145.69;83.26;52050.31;5093258;28;20202;-82
2023/08/05 02:37:51;;;;;;;10.05;6.43;;;;;;;-145.69;83.56;52032.47;5093344;28;20198;-81
2023/08/05 02:40:18;;;;;;;15.13;6.22;;;;;;;-145.69;84.25;52052.28;5093315;28;20605;-81
2023/08/05 02:42:45;;;;;;;9.95;6.35;;;;;;;-145.69;81.50;52072.09;5093571;28;20201;-82
2023/08/05 02:45:12;;;;;;;13.70;6.68;;;;;;;-145.69;78.16;52056.25;5092862;28;20263;-82
2023/08/05 02:47:38;;;;;;;12.35;6.72;;;;;;;-145.69;78.50;52036.44;5092965;28;20439;-81
2023/08/05 02:50:08;;;;;;;13.43;6.35;;;;;;;-145.69;76.64;52052.28;5093279;28;20209;-81
2023/08/05 02:52:36;;;;;;;11.57;6.57;;;;;;;-145.69;76.80;52064.16;5093207;28;20213;-82
2023/08/05 02:55:02;;;;;;;13.65;6.03;;;;;;;-145.69;77.14;52048.31;5093139;28;20288;-82
2023/08/05 02:57:29;;;;;;;14.23;6.10;;;;;;;-145.69;76.83;52048.31;5093307;28;20286;-81
2023/08/05 02:59:55;;;;;;;11.13;5.38;;;;;;;-145.69;76.48;52022.59;5093021;28;20695;-81
2023/08/05 03:02:22;;;;;;;13.88;5.70;;;;;;;-145.69;76.46;52028.53;5093037;28;20206;-82
2023/08/05 03:04:48;;;;;;;10.77;5.70;;;;;;;-145.69;75.85;52018.63;5092770;28;20202;-82
2023/08/05 03:07:15;;;;;;;11.85;5.22;;;;;;;-145.69;76.36;52052.28;5092779;28;20229;-81
2023/08/05 03:09:43;;;;;;;11.32;5.47;;;;;;;-145.69;75.34;52060.22;5093031;28;20230;-81
2023/08/05 03:12:09;;;;;;;12.10;5.72;;;;;;;-145.69;76.41;52040.41;5092664;28;20204;-81
2023/08/05 03:14:36;;;;;;;11.15;6.32;;;;;;;-145.69;76.75;52042.38;5092645;28;20202;-81
2023/08/05 03:17:02;;;;;;;10.07;5.95;;;;;;;-145.69;77.52;52054.25;5091667;28;20229;-82
2023/08/05 03:19:29;;;;;;;9.00;5.65;;;;;;;-145.69;79.58;52082.00;5092388;28;20194;-81
2023/08/05 03:21:55;;;;;;;6.78;4.95;;;;;;;-145.69;81.42;52042.38;5092862;28;20206;-82
2023/08/05 03:24:22;;;;;;;15.27;6.20;;;;;;;-145.69;81.79;52072.09;5090811;28;20234;-81
2023/08/05 03:26:50;;;;;;;11.38;5.57;;;;;;;-145.69;81.68;52048.31;5073901;28;20222;-82
2023/08/05 03:29:16;;;;;;;13.20;5.82;;;;;;;-145.69;81.82;52080.00;5073238;28;20198;-82
2023/08/05 03:31:43;;;;;;;11.40;5.95;;;;;;;-145.69;81.48;52109.72;5081790;28;20233;-81
2023/08/05 03:34:09;;;;;;;13.80;5.72;;;;;;;-145.69;80.85;52068.13;5093706;28;20198;-82
2023/08/05 03:36:37;;;;;;;14.45;6.88;;;;;;;-145.69;80.31;52064.16;5092296;28;20724;-82
2023/08/05 03:39:04;;;;;;;11.60;6.97;;;;;;;-145.69;81.50;52064.16;5093401;28;20198;-82
2023/08/05 03:41:30;;;;;;;8.55;5.07;;;;;;;-145.69;81.61;52052.28;5092603;28;20200;-81
2023/08/05 03:43:58;;;;;;;11.88;5.55;;;;;;;-145.69;81.08;52068.13;5092383;28;20198;-82
2023/08/05 03:46:25;;;;;;;10.27;5.10;;;;;;;-145.69;81.76;52072.09;5092428;28;20228;-81
2023/08/05 03:48:51;;;;;;;7.78;4.20;;;;;;;-145.69;82.48;52113.66;5093326;28;20194;-82
2023/08/05 03:51:17;;;;;;;9.90;5.93;;;;;;;-145.69;82.36;52080.00;5096490;28;20225;-82
2023/08/05 03:53:44;;;;;;;8.35;4.80;;;;;;;-145.69;82.46;52083.97;5092692;28;20202;-81
2023/08/05 03:56:11;;;;;;;9.60;5.40;;;;;;;-145.69;82.83;52099.81;5092375;28;20259;-82
2023/08/05 03:58:37;;;;;;;9.48;5.47;;;;;;;-145.69;82.60;52076.03;5092501;28;20206;-82
2023/08/05 04:01:06;;;;;;;8.52;5.47;;;;;;;-145.69;82.16;52048.31;5092055;28;20221;-82
2023/08/05 04:03:33;;;;;;;8.00;5.28;;;;;;;-145.69;82.08;52052.28;5091888;28;20251;-81
2023/08/05 04:06:00;;;;;;;10.77;4.80;;;;;;;-145.69;82.40;52087.94;5092243;28;20768;-82
2023/08/05 04:08:26;;;;;;;10.27;5.95;;;;;;;-145.69;85.73;52080.00;5091454;28;20429;-82
2023/08/05 04:10:53;;;;;;;7.97;5.07;;;;;;;-145.69;81.42;52056.25;5093399;28;20281;-82
2023/08/05 04:13:23;;;;;;;9.82;5.18;;;;;;;-145.69;80.20;52048.31;5092083;28;20676;-82
2023/08/05 04:15:53;;;;;;;10.85;5.97;;;;;;;-145.69;81.61;52076.03;5091099;28;20287;-81
2023/08/05 04:18:21;;;;;;;8.65;5.50;;;;;;;-145.69;79.41;52052.28;5091861;28;20198;-81
2023/08/05 04:20:48;;;;;;;9.65;5.50;;;;;;;-145.69;77.21;52052.28;5092161;28;20620;-81
2023/08/05 04:23:19;;;;;;;11.40;6.00;;;;;;;-145.69;76.74;52046.34;5090226;28;20206;-81
2023/08/05 04:25:45;;;;;;;13.95;5.63;;;;;;;-145.69;76.54;52052.28;5091960;28;20222;-81
2023/08/05 04:28:12;;;;;;;11.05;6.25;;;;;;;-145.69;76.49;52074.06;5095860;28;20248;-81
2023/08/05 04:30:39;;;;;;;10.10;4.85;;;;;;;-145.69;76.05;52074.06;5095123;28;20526;-82
2023/08/05 04:33:05;;;;;;;10.88;5.32;;;;;;;-145.69;76.54;52076.03;5095431;28;20202;-82
2023/08/05 04:35:33;;;;;;;9.98;5.43;;;;;;;-145.69;75.12;52046.34;5096204;28;20205;-82
2023/08/05 04:37:59;;;;;;;9.88;5.80;;;;;;;-145.69;75.92;52040.41;5095745;28;20194;-82
2023/08/05 04:40:26;;;;;;;11.35;6.10;;;;;;;-145.69;76.25;52046.34;5095530;28;20230;-82
2023/08/05 04:42:52;;;;;;;12.40;5.38;;;;;;;-145.69;77.65;52080.00;5094846;28;20565;-82
2023/08/05 04:45:19;;;;;;;10.90;5.40;;;;;;;-145.69;80.05;52048.31;5095173;28;20548;-82
2023/08/05 04:47:45;;;;;;;10.43;5.45;;;;;;;-145.69;81.40;52087.94;5095335;28;20194;-81
2023/08/05 04:50:12;;;;;;;12.85;6.50;;;;;;;-145.69;81.22;52052.28;5095606;28;20204;-82
2023/08/05 04:52:40;;;;;;;11.60;6.65;;;;;;;-145.69;81.59;52083.97;5095890;28;20325;-81
2023/08/05 04:55:10;;;;;;;9.88;5.50;;;;;;;-145.69;80.56;52064.16;5095953;28;20284;-82
2023/08/05 04:57:37;;;;;;;14.52;6.55;;;;;;;-145.69;81.12;52103.78;5095553;28;20205;-82
2023/08/05 05:00:04;;;;;;;11.57;6.18;;;;;;;-145.69;80.73;52107.72;5096395;28;20206;-81
2023/08/05 05:02:31;;;;;;;13.73;6.38;;;;;;;-145.69;80.90;52115.66;5095700;28;20209;-82
2023/08/05 05:04:57;;;;;;;12.98;6.50;;;;;;;-145.69;81.50;52093.88;5096282;28;20216;-81
2023/08/05 05:07:24;;;;;;;15.98;6.45;;;;;;;-145.69;81.63;52078.03;5095254;28;20225;-82
2023/08/05 05:09:52;;;;;;;12.68;6.40;;;;;;;-145.69;81.46;52056.25;5095234;28;20210;-81
2023/08/05 05:12:18;;;;;;;10.07;5.32;;;;;;;-145.69;81.16;52087.94;5095033;28;20530;-82
2023/08/05 05:14:45;;;;;;;12.70;6.75;;;;;;;-145.69;79.88;52072.09;5094937;28;20572;-81
2023/08/05 05:17:14;;;;;;;12.43;5.75;;;;;;;-145.69;79.38;52052.28;5094924;28;20542;-81
2023/08/05 05:19:41;;;;;;;8.75;5.78;;;;;;;-145.69;78.41;52072.09;5094770;28;20202;-81
2023/08/05 05:22:07;;;;;;;15.75;6.80;;;;;;;-145.69;76.66;52080.00;5094832;28;20209;-81
2023/08/05 05:24:34;;;;;;;11.68;6.53;;;;;;;-145.69;76.34;52060.22;5094428;28;20198;-81
2023/08/05 05:27:01;;;;;;;13.63;6.95;;;;;;;-145.69;75.66;52089.91;5094947;28;20236;-81
2023/08/05 05:29:30;;;;;;;12.85;6.72;;;;;;;-145.69;73.75;52064.16;5090598;28;20194;-81
2023/08/05 05:31:56;;;;;;;11.15;5.95;;;;;;;-145.69;72.02;52056.25;5074581;28;20194;-82
2023/08/05 05:34:23;;;;;;;11.75;6.65;;;;;;;-145.69;73.32;52064.16;5079851;28;20200;-82
2023/08/05 05:36:49;;;;;;;9.68;5.88;;;;;;;-145.69;74.81;52030.50;5094212;28;20206;-82
2023/08/05 05:39:15;;;;;;;10.20;6.05;;;;;;;-145.69;77.43;52064.16;5094942;28;20198;-82
2023/08/05 05:41:42;;;;;;;11.15;6.68;;;;;;;-145.69;78.22;52089.91;5094249;28;20205;-82
2023/08/05 05:44:10;;;;;;;9.07;5.95;;;;;;;-145.69;77.89;52068.13;5096821;28;20205;-82
2023/08/05 05:46:36;;;;;;;15.98;6.88;;;;;;;-145.69;78.06;52087.94;5095336;28;20289;-82
2023/08/05 05:49:03;;;;;;;10.85;6.25;;;;;;;-145.69;78.23;52091.88;5094417;28;20198;-82
2023/08/05 05:51:30;;;;;;;12.18;5.95;;;;;;;-145.69;77.84;52070.09;5097774;28;20216;-81
2023/08/05 05:53:57;;;;;;;12.20;6.00;;;;;;;-145.69;76.99;52080.00;5093863;28;20206;-81
2023/08/05 05:56:24;;;;;;;15.57;6.00;;;;;;;-145.69;77.82;52091.88;5093192;28;20198;-81
2023/08/05 05:58:50;;;;;;;10.43;5.93;;;;;;;-145.69;75.81;52060.22;5094742;28;20290;-82
2023/08/05 06:01:18;;;;;;;12.45;6.32;;;;;;;-145.69;77.96;52083.97;5097539;28;20251;-82
2023/08/05 06:03:45;;;;;;;12.32;7.25;;;;;;;-145.69;77.54;52095.84;5098164;28;20208;-82
2023/08/05 06:06:12;;;;;;;14.60;7.70;;;;;;;-145.69;76.97;52093.88;5094523;28;20247;-82
2023/08/05 06:08:39;;;;;;;15.32;8.45;;;;;;;-145.69;77.64;52087.94;5094002;28;20201;-82
2023/08/05 06:11:07;;;;;;;18.20;7.80;;;;;;;-145.69;77.27;52078.03;5094085;28;20308;-83
2023/08/05 06:13:33;;;;;;;16.10;6.88;;;;;;;-145.69;76.85;52087.94;5093840;28;20198;-83
2023/08/05 06:16:00;;;;;;;19.27;9.13;;;;;;;-145.69;74.56;52070.09;5094112;28;20232;-82
2023/08/05 06:18:28;;;;;;;17.40;7.97;;;;;;;-145.69;76.43;52030.50;5094664;28;20201;-83
2023/08/05 06:20:54;;;;;;;19.70;10.27;;;;;;;-145.69;76.17;52080.00;5093832;28;20194;-83
2023/08/05 06:23:21;;;;;;;16.13;8.55;;;;;;;-145.69;75.45;52068.13;5094299;28;20202;-83
2023/08/05 06:25:47;;;;;;;13.90;7.00;;;;;;;-145.69;75.88;52062.19;5095333;28;20210;-83
2023/08/05 06:28:14;;;;;;;13.70;6.82;;;;;;;-145.69;74.73;52044.38;5094545;28;20221;-83
2023/08/05 06:30:43;;;;;;;11.55;6.32;;;;;;;-145.69;72.91;52036.44;5095522;28;20229;-83
2023/08/05 06:33:10;;;;;;;10.85;6.43;;;;;;;-145.69;73.49;52080.00;5095669;28;20190;-83
2023/08/05 06:35:38;;;;;;;14.32;6.72;;;;;;;-145.69;72.34;52040.41;5095123;28;20198;-83
2023/08/05 06:38:04;;;;;;;12.63;6.97;;;;;;;-145.69;69.74;52048.31;5094665;28;20228;-82
2023/08/05 06:40:31;;;;;;;12.68;6.97;;;;;;;-145.69;72.76;52044.38;5093508;28;20281;-83
2023/08/05 06:42:57;;;;;;;10.20;6.07;;;;;;;-145.69;72.21;52042.38;5093636;28;20201;-82
2023/08/05 06:45:24;;;;;;;9.07;5.47;;;;;;;-145.69;70.84;52060.22;5093216;28;20657;-83
2023/08/05 06:47:50;;;;;;;11.23;5.72;;;;;;;-145.69;72.61;52056.25;5093246;28;20272;-83
2023/08/05 06:50:17;;;;;;;10.73;5.88;;;;;;;-145.69;74.30;52052.28;5092638;28;20468;-83
2023/08/05 06:52:45;;;;;;;9.75;5.75;;;;;;;-145.69;72.48;52048.31;5096492;28;20204;-84
2023/08/05 06:55:15;;;;;;;11.10;5.72;;;;;;;-145.69;71.20;52068.13;5094880;28;20202;-83
2023/08/05 06:57:42;;;;;;;8.30;4.95;;;;;;;-145.69;71.37;52042.38;5095224;28;20195;-84
2023/08/05 07:00:10;;;;;;;8.00;4.45;;;;;;;-145.69;70.03;52036.44;5099561;28;20204;-84
2023/08/05 07:02:37;;;;;;;7.97;5.07;;;;;;;-145.69;70.01;52060.22;5095511;28;20251;-84
2023/08/05 07:05:03;;;;;;;10.05;5.88;;;;;;;-145.69;69.40;52024.56;5101407;28;20198;-84
2023/08/05 07:07:31;;;;;;;6.55;4.20;;;;;;;-145.69;68.87;52032.47;5101032;28;20241;-85
2023/08/05 07:10:02;;;;;;;9.07;5.57;;;;;;;-145.69;65.09;51988.91;5101235;28;20255;-84
2023/08/05 07:12:29;;;;;;;9.98;4.60;;;;;;;-145.69;63.31;52040.41;5095327;28;20281;-84
2023/08/05 07:14:55;;;;;;;7.50;4.30;;;;;;;-145.69;62.81;52014.66;5096443;28;20229;-85
2023/08/05 07:17:22;;;;;;;7.43;4.22;;;;;;;-145.69;61.44;52032.47;5094993;28;20206;-83
2023/08/05 07:19:49;;;;;;;8.73;5.68;;;;;;;-145.69;58.69;51981.00;5092925;28;20209;-83
2023/08/05 07:22:15;;;;;;;9.27;5.40;;;;;;;-145.69;56.02;51984.97;5095450;28;20198;-84
2023/08/05 07:24:42;;;;;;;8.80;5.18;;;;;;;-145.69;55.05;51988.91;5096176;28;20288;-85
2023/08/05 07:27:10;;;;;;;6.68;4.68;;;;;;;-145.69;57.38;51992.88;5093720;28;20231;-84
2023/08/05 07:29:37;;;;;;;9.25;4.10;;;;;;;-145.69;56.00;52004.75;5092547;28;20198;-83
2023/08/05 07:32:05;;;;;;;7.32;4.93;;;;;;;-145.69;54.95;51959.22;5096831;28;20224;-83
2023/08/05 07:34:32;;;;;;;8.93;4.60;;;;;;;-145.69;51.35;51925.56;5099902;28;20208;-83
2023/08/05 07:36:59;;;;;;;9.10;4.30;;;;;;;-145.69;49.46;51943.38;5096513;28;20206;-83
2023/08/05 07:39:30;;;;;;;10.10;4.55;;;;;;;-145.69;50.04;51984.97;5093986;28;20194;-83
2023/08/05 07:41:56;;;;;;;6.35;3.88;;;;;;;-145.69;47.79;51953.28;5093733;28;20691;-83
2023/08/05 07:44:24;;;;;;;7.32;4.22;;;;;;;-145.69;46.84;51925.56;5094338;28;20208;-84
2023/08/05 07:46:52;;;;;;;5.63;3.47;;;;;;;-145.69;46.71;51931.50;5097424;28;20229;-83
2023/08/05 07:49:19;;;;;;;6.35;3.90;;;;;;;-145.69;46.01;51935.47;5095721;28;20288;-82
2023/08/05 07:51:48;;;;;;;6.00;3.35;;;;;;;-145.69;44.45;51937.44;5094478;28;20198;-84
2023/08/05 07:54:15;;;;;;;8.63;3.95;;;;;;;-145.69;43.81;51927.53;5091484;28;20336;-84
2023/08/05 07:56:42;;;;;;;5.93;3.45;;;;;;;-145.69;43.62;51901.78;5096858;28;20202;-84
2023/08/05 07:59:08;;;;;;;7.40;4.28;;;;;;;-145.69;43.14;51929.50;5094340;28;20548;-85
2023/08/05 08:01:38;;;;;;;5.22;3.10;;;;;;;-145.69;43.62;51885.94;5094481;28;20240;-84
2023/08/05 08:04:07;;;;;;;5.75;4.25;;;;;;;-145.69;44.94;51887.94;5098853;28;20206;-83
2023/08/05 08:06:33;;;;;;;5.78;3.83;;;;;;;-145.69;45.80;51939.41;5100613;28;20198;-84
2023/08/05 08:09:00;;;;;;;8.98;3.80;;;;;;;-145.69;45.33;51925.56;5100233;28;20248;-85
2023/08/05 08:11:26;;;;;;;7.50;4.00;;;;;;;-145.69;44.32;51939.41;5099683;28;20206;-84
2023/08/05 08:13:53;;;;;;;6.05;3.83;;;;;;;-145.69;43.40;51949.31;5098488;28;20197;-84
2023/08/05 08:16:20;;;;;;;6.85;3.63;;;;;;;-145.69;43.22;51897.84;5093992;28;20229;-83
2023/08/05 08:18:48;;;;;;;5.45;3.65;;;;;;;-145.69;42.69;51941.41;5088295;28;20205;-83
2023/08/05 08:21:14;;;;;;;5.53;3.33;;;;;;;-145.69;42.78;51949.31;5095921;28;20485;-82
2023/08/05 08:23:41;;;;;;;7.07;3.90;;;;;;;-145.69;43.17;51937.44;5085400;28;20205;-83
2023/08/05 08:26:07;;;;;;;4.78;2.88;;;;;;;-145.69;43.69;51917.63;5080128;28;20205;-83
2023/08/05 08:28:33;;;;;;;4.88;3.17;;;;;;;-145.69;44.12;51905.75;5081391;28;20236;-82
2023/08/05 08:31:00;;;;;;;4.55;3.17;;;;;;;-145.69;41.68;51917.63;5084320;28;20213;-83
2023/08/05 08:33:27;;;;;;;5.50;3.30;;;;;;;-145.69;41.85;51901.78;5076702;28;20210;-84
2023/08/05 08:35:55;;;;;;;6.18;2.67;;;;;;;-145.69;41.52;51903.78;5095428;28;20221;-83
2023/08/05 08:38:23;;;;;;;6.15;2.85;;;;;;;-145.69;41.18;51937.44;5095317;28;20198;-83
2023/08/05 08:40:51;;;;;;;3.33;2.63;;;;;;;-145.69;41.72;51897.84;5096135;28;20350;-82
2023/08/05 08:43:19;;;;;;;5.97;2.78;;;;;;;-145.69;41.83;51897.84;5096381;28;20206;-84
2023/08/05 08:45:47;;;;;;;4.95;2.50;;;;;;;-145.69;41.69;51913.69;5098106;28;20526;-84
2023/08/05 08:48:15;;;;;;;5.10;2.97;;;;;;;-145.69;41.64;51880.00;5097268;28;20257;-85
2023/08/05 08:50:43;;;;;;;6.13;2.83;;;;;;;-145.69;40.51;51901.78;5096097;28;20209;-83
2023/08/05 08:53:13;;;;;;;2.40;2.08;;;;;;;-145.69;40.78;51887.94;5095381;28;20202;-83
2023/08/05 08:55:40;;;;;;;4.80;2.50;;;;;;;-145.69;41.08;51887.94;5095741;28;20194;-84
2023/08/05 08:58:06;;;;;;;3.85;2.70;;;;;;;-145.69;41.22;51883.97;5095737;28;20571;-85
2023/08/05 09:00:33;;;;;;;4.07;2.38;;;;;;;-145.69;40.15;51897.84;5093701;28;20202;-84
2023/08/05 09:03:00;;;;;;;4.68;2.17;;;;;;;-145.69;39.70;51899.81;5094579;28;20727;-84
2023/08/05 09:05:31;;;;;;;2.97;2.15;;;;;;;-145.69;38.90;51891.88;5095137;28;20200;-85
2023/08/05 09:07:59;;;;;;;4.05;2.45;;;;;;;-145.69;38.78;51901.78;5095182;28;20233;-84
2023/08/05 09:10:27;;;;;;;4.00;2.10;;;;;;;-145.69;39.65;51913.69;5095426;28;20297;-84
2023/08/05 09:12:57;;;;;;;2.08;1.67;;;;;;;-145.69;39.85;51882.00;5092435;28;20565;-84
2023/08/05 09:15:31;;;;;;;3.10;2.17;;;;;;;-145.69;40.01;51885.94;5092519;28;20240;-84
2023/08/05 09:17:58;;;;;;;4.60;2.42;;;;;;;-145.69;40.68;51897.84;5094490;28;20196;-84
2023/08/05 09:20:25;;;;;;;3.47;1.88;;;;;;;-145.69;40.08;51878.03;5094502;28;20205;-84
2023/08/05 09:22:56;;;;;;;4.95;1.98;;;;;;;-145.69;39.57;51893.88;5094625;28;20653;-84
2023/08/05 09:25:23;;;;;;;4.45;2.03;;;;;;;-145.69;39.70;51889.91;5095054;28;20202;-84
2023/08/05 09:27:52;;;;;;;5.90;2.38;;;;;;;-145.69;40.08;51893.88;5094782;28;20234;-84
2023/08/05 09:30:20;;;;;;;3.55;1.85;;;;;;;-145.69;39.94;51883.97;5094812;28;20285;-84
2023/08/05 09:32:47;;;;;;;3.15;1.83;;;;;;;-145.69;39.49;51895.84;5094648;28;20194;-84
2023/08/05 09:35:14;;;;;;;2.65;1.98;;;;;;;-145.69;39.89;51883.97;5094509;28;20225;-84
2023/08/05 09:37:41;;;;;;;2.90;1.70;;;;;;;-145.69;39.67;51866.16;5095005;28;20256;-84
2023/08/05 09:40:17;;;;;;;5.70;2.20;;;;;;;-145.69;38.26;51868.13;5091354;28;20206;-83
2023/08/05 09:42:48;;;;;;;3.72;1.70;;;;;;;-145.69;37.84;51862.19;5093742;28;20656;-85
2023/08/05 09:45:17;;;;;;;3.45;1.85;;;;;;;-145.69;37.63;51850.31;5093190;28;20198;-83
2023/08/05 09:47:49;;;;;;;5.28;2.10;;;;;;;-145.69;38.32;51876.06;5091186;28;20226;-83
2023/08/05 09:50:18;;;;;;;5.05;2.40;;;;;;;-145.69;38.29;51870.13;5094716;28;20544;-84
2023/08/05 09:52:49;;;;;;;3.30;2.00;;;;;;;-145.69;38.40;51895.84;5094618;28;20202;-83
2023/08/05 09:55:16;;;;;;;5.07;2.03;;;;;;;-145.69;38.04;51864.16;5093896;28;20198;-83
2023/08/05 09:57:44;;;;;;;2.42;1.73;;;;;;;-145.69;38.60;51903.78;5094561;28;20198;-84
2023/08/05 10:00:12;;;;;;;2.83;1.83;;;;;;;-145.69;38.90;51870.13;5094379;28;20569;-83
2023/08/05 10:02:41;;;;;;;6.45;2.40;;;;;;;-145.69;39.90;51880.00;5094164;28;20664;-83
2023/08/05 10:05:09;;;;;;;3.13;1.83;;;;;;;-145.69;39.81;51905.75;5093862;28;20217;-83
2023/08/05 10:07:36;;;;;;;3.67;2.15;;;;;;;-145.69;39.42;51868.13;5093880;28;20249;-82
2023/08/05 10:10:06;;;;;;;3.05;1.83;;;;;;;-145.69;39.16;51893.88;5093655;28;20281;-82
2023/08/05 10:12:38;;;;;;;3.97;2.13;;;;;;;-145.69;38.91;51905.75;5094355;28;20298;-82
2023/08/05 10:15:07;;;;;;;3.00;1.83;;;;;;;-145.69;38.45;51862.19;5093649;28;20238;-82
2023/08/05 10:17:49;;;;;;;3.17;1.88;;;;;;;-145.69;38.21;51893.88;5094011;28;20212;-82
2023/08/05 10:20:17;;;;;;;3.45;1.70;;;;;;;-145.69;37.63;51917.63;5093912;28;20301;-82
2023/08/05 10:23:03;;;;;;;3.10;2.08;;;;;;;-145.69;37.11;51876.06;5093381;28;20204;-84
2023/08/05 10:25:42;;;;;;;2.97;1.90;;;;;;;-145.69;37.56;51868.13;5093291;28;20281;-83
2023/08/05 10:28:11;;;;;;;2.97;2.10;;;;;;;-145.69;37.75;51864.16;5093398;28;20217;-85
2023/08/05 10:30:49;;;;;;;3.58;1.75;;;;;;;-145.69;37.51;51832.50;5092819;28;20202;-86
2023/08/05 10:33:17;;;;;;;8.18;1.80;;;;;;;-145.69;37.10;51866.16;5093743;28;20202;-84
2023/08/05 10:35:45;;;;;;;3.60;1.70;;;;;;;-145.69;37.54;51854.28;5093599;28;20205;-84
2023/08/05 10:38:14;;;;;;;4.05;1.90;;;;;;;-145.69;36.88;51880.00;5093121;28;20202;-84
2023/08/05 10:40:51;;;;;;;3.45;1.90;;;;;;;-145.69;37.06;51850.31;5089446;28;20198;-84
2023/08/05 10:43:50;;;;;;;4.00;1.88;;;;;;;-145.69;36.12;51868.13;5092414;28;20660;-83
2023/08/05 10:46:19;;;;;;;3.53;1.60;;;;;;;-145.69;36.23;51842.38;5081852;28;20252;-84
2023/08/05 10:48:51;;;;;;;2.90;1.65;;;;;;;-145.69;35.02;51870.13;5093910;28;20761;-84
2023/08/05 10:51:20;;;;;;;2.35;1.52;;;;;;;-145.69;35.41;51864.16;5093447;28;20565;-84
2023/08/05 10:53:59;;;;;;;2.83;1.70;;;;;;;-145.69;35.52;51844.38;5093354;28;20206;-84
2023/08/05 10:56:34;;;;;;;2.83;1.50;;;;;;;-145.69;36.32;51850.31;5093250;28;20201;-84
2023/08/05 10:59:10;;;;;;;2.33;1.50;;;;;;;-145.69;36.53;51874.06;5093370;28;20383;-84
2023/08/05 11:01:55;;;;;;;3.22;1.60;;;;;;;-145.69;36.29;51840.41;5092714;28;20552;-84
2023/08/05 11:04:28;;;;;;;2.40;1.70;;;;;;;-145.69;35.44;51838.44;5092800;28;20292;-82
2023/08/05 11:06:55;;;;;;;4.20;1.73;;;;;;;-145.69;37.06;51842.38;5092739;28;20193;-83
2023/08/05 11:09:22;;;;;;;2.50;1.88;;;;;;;-145.69;36.97;51854.28;5092714;28;20554;-83
2023/08/05 11:11:49;;;;;;;2.95;1.80;;;;;;;-145.69;36.60;51850.31;5093081;28;20201;-83
2023/08/05 11:14:17;;;;;;;2.10;1.55;;;;;;;-145.69;35.45;51854.28;5092596;28;20861;-80